createdAt,value
2023-03-08T00:00:56.509Z,9.05
2023-03-08T00:07:46.645Z,8.00
2023-03-08T00:11:12.572Z,8.75
2023-03-08T00:14:37.992Z,9.10
2023-03-08T00:18:03.069Z,7.90
2023-03-08T00:21:28.136Z,7.82
2023-03-08T00:24:53.352Z,7.78
2023-03-08T00:28:18.367Z,8.07
2023-03-08T00:35:08.912Z,6.88
2023-03-08T00:38:35.266Z,9.23
2023-03-08T00:42:00.763Z,7.05
2023-03-08T00:45:25.787Z,7.45
2023-03-08T00:52:16.573Z,7.78
2023-03-08T00:55:51.396Z,7.53
2023-03-08T00:59:16.748Z,6.60
2023-03-08T01:02:41.775Z,6.90
2023-03-08T01:09:32.963Z,9.48
2023-03-08T01:16:24.923Z,7.18
2023-03-08T01:19:50.400Z,8.82
2023-03-08T01:23:15.401Z,9.13
2023-03-08T01:26:40.427Z,7.15
2023-03-08T01:30:05.693Z,7.10
2023-03-08T01:33:31.077Z,7.43
2023-03-08T01:36:56.178Z,7.03
2023-03-08T01:40:22.041Z,6.93
2023-03-08T01:43:47.444Z,7.40
2023-03-08T01:47:29.367Z,7.53
2023-03-08T01:50:56.471Z,6.43
2023-03-08T01:55:00.167Z,9.10
2023-03-08T01:58:47.556Z,6.65
2023-03-08T02:02:13.283Z,8.40
2023-03-08T02:05:42.003Z,7.53
2023-03-08T02:09:07.393Z,8.90
2023-03-08T02:12:33.751Z,7.72
2023-03-08T02:16:01.037Z,7.50
2023-03-08T02:19:44.854Z,8.88
2023-03-08T02:23:16.628Z,5.50
2023-03-08T02:26:49.744Z,6.95
2023-03-08T02:30:16.651Z,5.85
2023-03-08T02:33:41.673Z,5.65
2023-03-08T02:40:31.600Z,5.93
2023-03-08T02:47:21.571Z,5.75
2023-03-08T02:50:46.556Z,5.63
2023-03-08T02:57:36.600Z,5.15
2023-03-08T03:01:02.096Z,7.03
2023-03-08T03:04:31.166Z,6.75
2023-03-08T03:07:58.649Z,7.47
2023-03-08T03:11:24.006Z,8.85
2023-03-08T03:14:53.659Z,6.97
2023-03-08T03:18:18.623Z,7.38
2023-03-08T03:21:43.610Z,8.02
2023-03-08T03:28:33.865Z,11.32
2023-03-08T03:31:58.881Z,9.80
2023-03-08T03:35:24.150Z,9.65
2023-03-08T03:38:49.493Z,7.38
2023-03-08T03:42:16.014Z,9.80
2023-03-08T03:45:41.025Z,9.70
2023-03-08T03:52:31.495Z,9.40
2023-03-08T03:55:56.739Z,13.10
2023-03-08T03:59:21.740Z,9.65
2023-03-08T04:06:18.933Z,10.80
2023-03-08T04:09:45.131Z,10.05
2023-03-08T04:13:11.382Z,10.88
2023-03-08T04:16:37.779Z,10.38
2023-03-08T04:20:05.855Z,12.23
2023-03-08T04:23:31.013Z,13.85
2023-03-08T04:26:56.042Z,11.05
2023-03-08T04:33:46.315Z,11.82
2023-03-08T04:37:12.108Z,12.32
2023-03-08T04:40:57.078Z,9.82
2023-03-08T04:44:22.163Z,13.32
2023-03-08T04:51:12.759Z,15.25
2023-03-08T04:54:38.153Z,12.57
2023-03-08T04:58:03.615Z,17.05
2023-03-08T05:01:28.594Z,12.75
2023-03-08T05:04:53.789Z,12.75
2023-03-08T05:08:19.168Z,15.65
2023-03-08T05:12:02.765Z,13.38
2023-03-08T05:18:52.757Z,14.23
2023-03-08T05:25:44.979Z,14.98
2023-03-08T05:29:10.377Z,13.23
2023-03-08T05:32:35.400Z,12.93
2023-03-08T05:39:25.999Z,15.48
2023-03-08T05:42:51.009Z,16.08
2023-03-08T05:49:42.478Z,10.18
2023-03-08T05:53:07.556Z,12.65
2023-03-08T05:59:57.445Z,11.52
2023-03-08T06:03:22.537Z,12.40
2023-03-08T06:06:47.619Z,11.35
2023-03-08T06:13:38.029Z,12.63
2023-03-08T06:17:03.399Z,17.65
2023-03-08T06:20:28.580Z,14.95
2023-03-08T06:23:53.603Z,12.40
2023-03-08T06:27:18.640Z,11.13
2023-03-08T06:34:08.665Z,11.75
2023-03-08T06:41:00.552Z,6.20
2023-03-08T06:44:26.074Z,7.35
2023-03-08T06:47:51.067Z,7.05
2023-03-08T06:51:17.036Z,10.35
2023-03-08T06:54:42.327Z,9.18
2023-03-08T06:58:07.695Z,8.43
2023-03-08T07:01:33.080Z,7.53
2023-03-08T07:04:58.087Z,11.07
2023-03-08T07:11:48.144Z,5.80
2023-03-08T07:18:42.080Z,7.03
2023-03-08T07:22:07.278Z,4.22
2023-03-08T07:25:32.298Z,6.60
2023-03-08T07:32:23.817Z,5.35
2023-03-08T07:35:49.119Z,6.38
2023-03-08T07:39:14.349Z,7.60
2023-03-08T07:42:39.411Z,5.88
2023-03-08T07:49:30.338Z,6.90
2023-03-08T07:52:55.476Z,8.02
2023-03-08T07:56:20.559Z,7.10
2023-03-08T08:03:11.139Z,4.22
2023-03-08T08:06:36.837Z,4.55
2023-03-08T08:10:01.932Z,6.38
2023-03-08T08:13:26.975Z,6.00
2023-03-08T08:20:17.066Z,5.22
2023-03-08T08:27:09.540Z,3.88
2023-03-08T08:30:35.828Z,2.42
2023-03-08T08:34:00.940Z,2.40
2023-03-08T08:37:26.784Z,3.22
2023-03-08T08:40:52.200Z,2.95
2023-03-08T08:44:17.689Z,3.03
2023-03-08T08:47:43.057Z,3.20
2023-03-08T08:51:09.389Z,2.22
2023-03-08T08:54:36.836Z,2.70
2023-03-08T08:58:02.622Z,3.65
2023-03-08T09:01:29.581Z,2.10
2023-03-08T09:04:55.012Z,2.13
2023-03-08T09:08:20.238Z,3.50
2023-03-08T09:11:54.648Z,2.92
2023-03-08T09:15:21.840Z,1.70
2023-03-08T09:18:47.095Z,1.63
2023-03-08T09:22:12.638Z,2.03
2023-03-08T09:25:37.992Z,2.30
2023-03-08T09:29:05.522Z,1.70
2023-03-08T09:32:32.903Z,2.40
2023-03-08T09:35:59.200Z,2.17
2023-03-08T09:39:24.421Z,2.28
2023-03-08T09:42:49.752Z,4.65
2023-03-08T09:46:29.236Z,2.13
2023-03-08T09:49:59.488Z,2.58
2023-03-08T09:53:29.771Z,0.77
2023-03-08T09:56:56.661Z,2.72
2023-03-08T10:00:32.868Z,5.43
2023-03-08T10:04:01.088Z,2.90
2023-03-08T10:07:44.941Z,2.72
2023-03-08T10:11:28.764Z,2.20
2023-03-08T10:15:03.928Z,2.50
2023-03-08T10:18:44.677Z,3.15
2023-03-08T10:22:23.353Z,3.72
2023-03-08T10:25:51.294Z,2.05
2023-03-08T10:29:21.550Z,4.30
2023-03-08T10:32:48.295Z,1.42
2023-03-08T10:36:24.087Z,3.60
2023-03-08T10:39:59.764Z,3.47
2023-03-08T10:43:31.102Z,2.10
2023-03-08T10:47:26.843Z,3.17
2023-03-08T10:51:04.397Z,3.10
2023-03-08T10:54:29.941Z,3.63
2023-03-08T10:57:58.731Z,4.22
2023-03-08T11:01:32.469Z,1.98
2023-03-08T11:05:00.836Z,3.90
2023-03-08T11:08:33.177Z,3.55
2023-03-08T11:11:59.978Z,2.10
2023-03-08T11:15:26.568Z,2.80
2023-03-08T11:19:07.367Z,2.70
2023-03-08T11:22:52.241Z,4.05
2023-03-08T11:26:40.823Z,1.88
2023-03-08T11:30:15.044Z,2.58
2023-03-08T11:34:13.828Z,3.22
2023-03-08T11:37:59.197Z,2.55
2023-03-08T11:41:41.385Z,3.28
2023-03-08T11:45:30.691Z,4.38
2023-03-08T11:53:05.704Z,3.22
2023-03-08T11:56:52.437Z,3.53
2023-03-08T12:00:52.995Z,3.85
2023-03-08T12:04:26.511Z,2.85
2023-03-08T12:07:56.071Z,3.53
2023-03-08T12:11:27.146Z,3.55
2023-03-08T12:15:19.436Z,4.38
2023-03-08T12:18:51.647Z,3.92
2023-03-08T12:22:44.286Z,3.80
2023-03-08T12:26:15.236Z,3.58
2023-03-08T12:33:12.062Z,1.90
2023-03-08T12:36:47.867Z,3.70
2023-03-08T12:40:31.032Z,4.22
2023-03-08T12:44:21.962Z,4.30
2023-03-08T12:48:03.994Z,5.95
2023-03-08T12:51:32.046Z,3.90
2023-03-08T12:55:06.799Z,4.05
2023-03-08T12:58:36.890Z,3.90
2023-03-08T13:02:24.862Z,4.60
2023-03-08T13:06:00.453Z,6.63
2023-03-08T13:09:42.647Z,5.03
2023-03-08T13:13:21.116Z,3.85
2023-03-08T13:17:32.579Z,6.85
2023-03-08T13:21:17.881Z,3.80
2023-03-08T13:25:03.821Z,4.75
2023-03-08T13:28:47.103Z,4.65
2023-03-08T13:32:20.279Z,4.80
2023-03-08T13:36:07.378Z,4.70
2023-03-08T13:39:34.636Z,4.30
2023-03-08T13:43:08.727Z,4.05
2023-03-08T13:46:35.389Z,5.97
2023-03-08T13:50:01.563Z,4.53
2023-03-08T13:53:30.980Z,7.05
2023-03-08T13:57:00.625Z,5.72
2023-03-08T14:00:25.922Z,5.80
2023-03-08T14:03:55.576Z,6.72
2023-03-08T14:07:29.303Z,6.97
2023-03-08T14:11:05.217Z,9.23
2023-03-08T14:14:35.707Z,5.57
2023-03-08T14:18:02.489Z,6.85
2023-03-08T14:21:28.819Z,6.00
2023-03-08T14:25:02.111Z,6.70
2023-03-08T14:28:42.056Z,5.50
2023-03-08T14:32:32.748Z,6.75
2023-03-08T14:36:24.566Z,5.37
2023-03-08T14:39:52.087Z,5.32
2023-03-08T14:43:24.523Z,5.22
2023-03-08T14:47:21.605Z,7.88
2023-03-08T14:51:21.795Z,6.20
2023-03-08T14:55:18.934Z,7.75
2023-03-08T14:58:46.846Z,8.23
2023-03-08T15:02:21.736Z,6.95
2023-03-08T15:05:47.158Z,7.53
2023-03-08T15:09:14.815Z,7.63
2023-03-08T15:12:41.001Z,6.60
2023-03-08T15:16:14.585Z,7.28
2023-03-08T15:19:40.823Z,7.32
2023-03-08T15:23:07.183Z,6.05
2023-03-08T15:26:34.114Z,7.93
2023-03-08T15:29:59.872Z,8.93
2023-03-08T15:33:24.911Z,5.40
2023-03-08T15:36:51.152Z,7.82
2023-03-08T15:40:18.070Z,7.88
2023-03-08T15:43:43.733Z,8.82
2023-03-08T15:47:12.433Z,6.35
2023-03-08T15:50:37.588Z,8.48
2023-03-08T15:54:03.557Z,8.35
2023-03-08T15:57:29.389Z,8.40
2023-03-08T16:00:54.617Z,8.52
2023-03-08T16:04:19.794Z,7.45
2023-03-08T16:07:45.287Z,8.93
2023-03-08T16:11:13.644Z,6.68
2023-03-08T16:14:39.308Z,10.25
2023-03-08T16:18:04.557Z,8.07
2023-03-08T16:21:29.700Z,9.10
2023-03-08T16:24:55.240Z,8.02
2023-03-08T16:28:20.287Z,8.82
2023-03-08T16:31:45.471Z,7.28
2023-03-08T16:35:10.780Z,9.32
2023-03-08T16:38:36.063Z,8.77
2023-03-08T16:42:01.726Z,8.90
2023-03-08T16:45:28.040Z,8.13
2023-03-08T16:48:56.034Z,9.02
2023-03-08T16:52:22.753Z,9.68
2023-03-08T16:55:48.085Z,7.30
2023-03-08T16:59:14.464Z,9.98
2023-03-08T17:02:40.655Z,12.27
2023-03-08T17:06:09.879Z,10.73
2023-03-08T17:09:35.778Z,10.95
2023-03-08T17:13:01.281Z,11.68
2023-03-08T17:16:27.764Z,12.73
2023-03-08T17:19:54.068Z,12.85
2023-03-08T17:23:20.276Z,12.68
2023-03-08T17:26:46.502Z,11.35
2023-03-08T17:30:14.311Z,12.38
2023-03-08T17:33:39.733Z,13.30
2023-03-08T17:37:12.204Z,13.85
2023-03-08T17:40:39.768Z,12.77
2023-03-08T17:44:04.857Z,13.07
2023-03-08T17:47:29.869Z,11.65
2023-03-08T17:54:21.276Z,12.07
2023-03-08T17:57:46.333Z,15.10
2023-03-08T18:01:12.003Z,13.43
2023-03-08T18:04:37.073Z,15.20
2023-03-08T18:08:02.273Z,14.52
2023-03-08T18:11:27.824Z,15.73
2023-03-08T18:14:53.811Z,15.77
2023-03-08T18:18:19.758Z,15.82
2023-03-08T18:21:45.198Z,14.57
2023-03-08T18:25:10.778Z,15.77
2023-03-08T18:28:36.467Z,11.40
2023-03-08T18:32:05.277Z,16.30
2023-03-08T18:35:30.450Z,17.65
2023-03-08T18:38:55.589Z,13.60
2023-03-08T18:42:22.063Z,16.00
2023-03-08T18:45:54.192Z,14.45
2023-03-08T18:49:19.964Z,14.00
2023-03-08T18:52:45.198Z,18.30
2023-03-08T18:56:10.260Z,15.57
2023-03-08T18:59:36.682Z,16.23
2023-03-08T19:03:01.768Z,15.98
2023-03-08T19:06:26.965Z,16.35
2023-03-08T19:09:53.699Z,19.88
2023-03-08T19:13:18.752Z,18.45
2023-03-08T19:16:44.066Z,14.05
2023-03-08T19:20:11.105Z,16.35
2023-03-08T19:23:36.198Z,17.33
2023-03-08T19:27:09.235Z,17.60
2023-03-08T19:30:35.451Z,25.73
2023-03-08T19:34:01.282Z,66.38
2023-03-08T19:37:26.499Z,20.08
2023-03-08T19:40:51.844Z,22.95
2023-03-08T19:44:16.884Z,20.92
2023-03-08T19:47:42.211Z,19.92
2023-03-08T19:51:07.590Z,17.73
2023-03-08T19:54:33.130Z,47.47
2023-03-08T19:57:58.539Z,17.65
2023-03-08T20:01:23.841Z,17.98
2023-03-08T20:04:49.114Z,16.40
2023-03-08T20:08:14.292Z,18.50
2023-03-08T20:11:41.090Z,19.10
2023-03-08T20:15:06.404Z,19.08
2023-03-08T20:18:31.497Z,16.58
2023-03-08T20:21:56.636Z,20.02
2023-03-08T20:25:22.096Z,17.45
2023-03-08T20:28:47.223Z,13.18
2023-03-08T20:32:12.484Z,15.70
2023-03-08T20:35:38.388Z,12.73
2023-03-08T20:39:03.858Z,17.55
2023-03-08T20:42:31.128Z,10.23
2023-03-08T20:45:56.779Z,15.50
2023-03-08T20:49:22.352Z,16.98
2023-03-08T20:52:48.547Z,18.45
2023-03-08T20:56:14.756Z,16.88
2023-03-08T20:59:40.120Z,17.70
2023-03-08T21:03:05.626Z,16.25
2023-03-08T21:06:32.080Z,14.57
2023-03-08T21:09:57.651Z,15.23
2023-03-08T21:13:22.950Z,17.65
2023-03-08T21:16:48.236Z,15.25
2023-03-08T21:20:13.485Z,16.05
2023-03-08T21:23:38.572Z,16.85
2023-03-08T21:27:03.754Z,15.68
2023-03-08T21:30:30.696Z,18.35
2023-03-08T21:33:56.069Z,18.38
2023-03-08T21:37:21.261Z,20.38
2023-03-08T21:40:46.349Z,15.07
2023-03-08T21:51:07.367Z,19.67
2023-03-08T21:54:32.637Z,16.55
2023-03-08T21:57:57.906Z,15.52
2023-03-08T22:01:24.645Z,18.23
2023-03-08T22:04:50.168Z,14.77
2023-03-08T22:08:15.212Z,13.93
2023-03-08T22:11:40.300Z,15.43
2023-03-08T22:18:32.266Z,16.30
2023-03-08T22:21:58.853Z,13.90
2023-03-08T22:25:23.944Z,16.35
2023-03-08T22:32:15.302Z,15.85
2023-03-08T22:35:44.060Z,14.82
2023-03-08T22:39:10.746Z,17.10
2023-03-08T22:42:35.958Z,14.65
2023-03-08T22:46:09.193Z,16.58
2023-03-08T22:49:34.818Z,10.98
2023-03-08T22:52:59.809Z,15.32
2023-03-08T22:56:30.236Z,15.18
2023-03-08T22:59:56.096Z,14.18
2023-03-08T23:03:21.283Z,17.38
2023-03-08T23:06:47.574Z,16.98
2023-03-08T23:10:14.642Z,11.38
2023-03-08T23:13:41.162Z,9.48
2023-03-08T23:17:06.437Z,15.73
2023-03-08T23:20:31.537Z,13.55
2023-03-08T23:23:57.375Z,12.48
2023-03-08T23:27:23.160Z,16.13
2023-03-08T23:30:50.401Z,15.18
2023-03-08T23:34:15.462Z,14.68
2023-03-08T23:41:08.683Z,11.40
2023-03-08T23:44:34.532Z,13.00
2023-03-08T23:48:01.034Z,13.02
2023-03-08T23:51:28.671Z,13.20
2023-03-08T23:54:54.606Z,13.15
2023-03-08T23:58:19.674Z,15.23
